Saint Albans, Vermont
Current Conditions -  °F | °C
As of 2:55 AM on Friday 24 Oct 2014 (Local Time) from KFSO Reporting Station
Moderate Rain Moderate Rain  
Wind Chill: 36°   Ceiling: 400
Heat Index: 41°   Visibility: 2.5mi
Dew Point: 40°   Wind: 8mph
Humidity: 97%   Direction: 350°N
Pressure: 29.85"   Gusts: NA
Location:  44.81°N, 73.08°W
Report Text: KFSO 240655Z AUTO 35007KT 320V020 2 1/2SM RA OVC004 05/05 A2985 RMK AO2 T00490045
Loading
Personal Weather Stations






























Interactive Weather Map
Tropical Storm Tracking
New forecast layout! Learn more

10-Day Weather Forecast

Advertisements
Track Severe Weather on mobile